AirNav   Air Wisconsin Up To $57,000 Bonus
 
 1621 users online  

75MO Childrens Mercy Hospital Heliport
Kansas City, Missouri, USA

GOING TO KANSAS CITY?


FAA INFORMATION EFFECTIVE 17 JUNE 2021

Location

FAA Identifier: 75MO
Lat/Long: 39-05-01.7400N 094-34-36.9100W
39-05.029000N 094-34.615167W
39.0838167,-94.5769194
(estimated)
Elevation: 922 ft. / 281 m (estimated)
Variation: 04E (1995)
Time zone: UTC -5 (UTC -6 during Standard Time)
Zip code: 64108

Heliport Operations

Heliport use: Private use, MEDICAL USE.
Activation date: 05/1995
Control tower: no
ARTCC: KANSAS CITY CENTER
FSS: COLUMBIA FLIGHT SERVICE STATION
Attendance: CONTINUOUS
Wind indicator: yes
Segmented circle: no

Heliport Communications

WX ASOS at MKC (2.5 nm N): PHONE 816-329-2843
WX ASOS at LXT (12 nm SE): 124.175 (816-347-9807)
WX ASOS at MCI (14 nm NW): PHONE 816-329-2808
WX ASOS at OJC (16 nm SW): PHONE 913-780-6969
WX AWOS-3 at GPH (19 nm NE): 120.275 (816-407-3399)

Nearby radio navigation aids

VOR radial/distance  VOR name  Freq  Var
MCIr143/14.2KANSAS CITY VORTAC113.2505E
ANXr261/20.9NAPOLEON VORTAC114.0007E

Heliport Services

Runway Information

Helipad H1

Dimensions: 72 x 35 ft. / 22 x 11 m
Surface: concrete
Latitude: 39-05.029000N
Longitude: 094-34.615167W
Elevation: 922.0 ft.
Traffic pattern: leftleft

Helipad H2

Dimensions: 55 x 55 ft. / 17 x 17 m
Surface: asphalt
Latitude: 39-05.012667N
Longitude: 094-34.616167W
Elevation: 922.0 ft.
Traffic pattern: leftleft

Heliport Ownership and Management from official FAA records

Ownership: Privately-owned
Owner: CHILDRENS MERCY HOSPITAL
2401 GILLHAM ROAD
KANSAS CITY, MO 64108
Phone 816-234-3000
Manager: SHERRY MCCOOL
2401 GILLHAM ROAD
KANSAS CITY, MO 64108
Phone 816-536-3115
CHRISTY DRESSLER 816-234-3166

Heliport Operational Statistics

Aircraft based on the field: 1
Helicopters: 1
    

Additional Remarks

A52-H1 73 FT BLDG 80 FT S; 62 FT BLDG 300 FT NE; 95 FT BLDG 200 FT W & 200 FT CRANE 100 FT N.
FOR CD CTC KANSAS CITY APCH AT 816-329-2710.

Instrument Procedures

There are no published instrument procedures at 75MO.

Some nearby airports with instrument procedures:

KMKC - Charles B Wheeler Downtown Airport (2 nm N)
KLXT - Lee's Summit Municipal Airport (12 nm SE)
KMCI - Kansas City International Airport (14 nm NW)
KOJC - Johnson County Executive Airport (16 nm SW)
3GV - East Kansas City Airport (17 nm E)
KGPH - Midwest National Air Center Airport (19 nm NE)
 
Loc | Ops | Rwys | IFR | FBO | Links
Com | Nav | Svcs | Stats | Notes
Area around 75MO (Childrens Mercy Hospital Heliport)
 
Road maps at: MapQuest Bing Google
 
Aerial photo
No photo
 
Sectional chart

 
Airport distance calculator
Flying to Childrens Mercy Hospital Heliport? Find the distance to fly.

From to 75MO

Sunrise and sunset
Times for 21-Jun-2021
 Local
(UTC-5)
 Zulu
(UTC)
Morning civil twilight05:2110:21
Sunrise05:5410:54
Sunset20:4701:47
Evening civil twilight21:1902:19

Current date and time
Zulu (UTC)  21-Jun-2021 16:21:04
Local (UTC-5)  21-Jun-2021 11:21:04
 
METAR
KMKC 
2nm NW 
211554Z VRB06KT 10SM CLR 21/11 A3000 RMK AO2 SLP152 T02060111
KLXT 
12nm SE 
210153Z AUTO 26007KT 10SM TS BKN065 BKN110 31/22 A2957 RMK AO2 LTG DSNT E AND SW RAB34E47 TSB45 SLP003 P0002 T03060217
KMCI 
15nm NW 
211553Z 02011KT 10SM BKN130 BKN250 21/10 A3001 RMK AO2 SLP153 T02060100
KOJC 
16nm SW 
211553Z 34005G16KT 10SM CLR 20/11 A3003 RMK AO2 SLP158 T02000111
KGPH 
19nm NE 
211555Z AUTO 02008KT 330V050 10SM 21/07 A3000 RMK AO2
TAF
KMKC 
2nm NW 
211127Z 2112/2212 34008KT P6SM OVC120 TEMPO 2112/2114 -SHRA FM211800 35012G18KT P6SM FEW150 FM212200 35009KT P6SM FEW200 FM220100 02006KT P6SM SKC
KMCI 
15nm NW 
211127Z 2112/2212 34008KT P6SM OVC120 TEMPO 2112/2114 -SHRA FM211700 35012G18KT P6SM FEW150 FM212200 35009KT P6SM FEW150 FM220100 02005KT P6SM SKC
NOTAMs
Click for the latest NOTAMs
NOTAMs are issued by the DoD/FAA and will open in a separate window not controlled by AirNav.

 

 
 

Would you like to see your business listed on this page?

 If your business provides an interesting product or service to pilots, flight crews, aircraft, or users of the Childrens Mercy Hospital Heliport, you should consider listing it here.  To start the listing process, click on the button below
 
Add a business
 

Other Pages about Childrens Mercy Hospital Heliport

Update a link
 
Copyright © AirNav, LLC. All rights reserved. Privacy Policy  Contact